sensor_id;sensor_type;location;lat;lon;timestamp;temperature;humidity
20740;DHT22;10530;49.968;19.844;2023-05-19T00:00:38;9.60;99.90
20740;DHT22;10530;49.968;19.844;2023-05-19T00:05:41;9.60;99.90
20740;DHT22;10530;49.968;19.844;2023-05-19T00:10:47;9.60;99.90
20740;DHT22;10530;49.968;19.844;2023-05-19T00:15:50;9.70;99.90
20740;DHT22;10530;49.968;19.844;2023-05-19T01:32:02;9.80;99.90
20740;DHT22;10530;49.968;19.844;2023-05-19T01:52:17;9.90;99.90
20740;DHT22;10530;49.968;19.844;2023-05-19T01:57:23;9.80;99.90
20740;DHT22;10530;49.968;19.844;2023-05-19T02:13:36;9.80;99.90
20740;DHT22;10530;49.968;19.844;2023-05-19T02:18:40;9.80;99.90
20740;DHT22;10530;49.968;19.844;2023-05-19T02:23:47;9.80;99.90
20740;DHT22;10530;49.968;19.844;2023-05-19T02:28:50;9.80;99.90
20740;DHT22;10530;49.968;19.844;2023-05-19T02:33:53;9.80;99.90
20740;DHT22;10530;49.968;19.844;2023-05-19T03:14:18;9.80;99.90
20740;DHT22;10530;49.968;19.844;2023-05-19T03:19:25;9.80;99.90
20740;DHT22;10530;49.968;19.844;2023-05-19T03:24:29;9.80;99.90
20740;DHT22;10530;49.968;19.844;2023-05-19T03:29:32;9.80;99.90
20740;DHT22;10530;49.968;19.844;2023-05-19T03:34:36;9.80;99.90
20740;DHT22;10530;49.968;19.844;2023-05-19T03:39:39;9.80;99.90
20740;DHT22;10530;49.968;19.844;2023-05-19T03:44:42;9.80;99.90
20740;DHT22;10530;49.968;19.844;2023-05-19T03:49:47;9.90;99.90
20740;DHT22;10530;49.968;19.844;2023-05-19T03:55:25;9.80;99.90
20740;DHT22;10530;49.968;19.844;2023-05-19T04:00:28;9.90;99.90
20740;DHT22;10530;49.968;19.844;2023-05-19T04:05:31;10.00;99.90
20740;DHT22;10530;49.968;19.844;2023-05-19T04:10:34;10.00;99.90
20740;DHT22;10530;49.968;19.844;2023-05-19T04:15:37;10.10;99.90
20740;DHT22;10530;49.968;19.844;2023-05-19T04:20:39;10.10;99.90
20740;DHT22;10530;49.968;19.844;2023-05-19T04:25:42;10.10;99.90
20740;DHT22;10530;49.968;19.844;2023-05-19T04:30:45;10.00;99.90
20740;DHT22;10530;49.968;19.844;2023-05-19T04:35:48;10.20;99.90
20740;DHT22;10530;49.968;19.844;2023-05-19T04:40:52;10.20;99.90
20740;DHT22;10530;49.968;19.844;2023-05-19T04:45:55;10.40;99.90
20740;DHT22;10530;49.968;19.844;2023-05-19T04:51:00;10.50;99.90
20740;DHT22;10530;49.968;19.844;2023-05-19T04:56:04;10.50;99.90
20740;DHT22;10530;49.968;19.844;2023-05-19T05:01:09;10.40;99.90
20740;DHT22;10530;49.968;19.844;2023-05-19T05:06:12;10.50;99.90
20740;DHT22;10530;49.968;19.844;2023-05-19T05:11:16;10.50;99.90
20740;DHT22;10530;49.968;19.844;2023-05-19T05:16:21;10.70;99.90
20740;DHT22;10530;49.968;19.844;2023-05-19T05:21:24;10.70;99.90
20740;DHT22;10530;49.968;19.844;2023-05-19T05:26:30;10.80;99.90
20740;DHT22;10530;49.968;19.844;2023-05-19T05:31:35;11.00;99.90
20740;DHT22;10530;49.968;19.844;2023-05-19T05:36:39;11.00;99.90
20740;DHT22;10530;49.968;19.844;2023-05-19T05:41:43;11.30;99.90
20740;DHT22;10530;49.968;19.844;2023-05-19T05:46:47;11.30;99.90
20740;DHT22;10530;49.968;19.844;2023-05-19T05:51:50;11.40;99.90
20740;DHT22;10530;49.968;19.844;2023-05-19T05:57:12;11.60;99.90
20740;DHT22;10530;49.968;19.844;2023-05-19T06:02:16;11.70;99.90
20740;DHT22;10530;49.968;19.844;2023-05-19T06:07:20;11.70;99.90
20740;DHT22;10530;49.968;19.844;2023-05-19T06:12:23;11.60;99.90
20740;DHT22;10530;49.968;19.844;2023-05-19T06:17:29;11.70;99.90
20740;DHT22;10530;49.968;19.844;2023-05-19T06:22:32;11.80;99.90
20740;DHT22;10530;49.968;19.844;2023-05-19T06:27:36;12.00;99.90
20740;DHT22;10530;49.968;19.844;2023-05-19T06:32:40;12.00;99.90
20740;DHT22;10530;49.968;19.844;2023-05-19T06:37:42;11.70;99.90
20740;DHT22;10530;49.968;19.844;2023-05-19T06:42:46;12.00;99.90
20740;DHT22;10530;49.968;19.844;2023-05-19T06:47:55;12.10;99.90
20740;DHT22;10530;49.968;19.844;2023-05-19T06:53:04;12.30;99.90
20740;DHT22;10530;49.968;19.844;2023-05-19T06:58:07;12.50;99.90
20740;DHT22;10530;49.968;19.844;2023-05-19T07:03:10;12.60;99.90
20740;DHT22;10530;49.968;19.844;2023-05-19T07:08:14;12.50;99.90
20740;DHT22;10530;49.968;19.844;2023-05-19T07:13:17;12.70;99.90
20740;DHT22;10530;49.968;19.844;2023-05-19T07:18:21;12.50;99.90
20740;DHT22;10530;49.968;19.844;2023-05-19T07:23:26;12.70;99.90
20740;DHT22;10530;49.968;19.844;2023-05-19T07:28:29;12.90;99.90
20740;DHT22;10530;49.968;19.844;2023-05-19T07:33:32;12.70;99.90
20740;DHT22;10530;49.968;19.844;2023-05-19T07:58:48;12.40;99.90
20740;DHT22;10530;49.968;19.844;2023-05-19T08:03:51;12.50;99.90
20740;DHT22;10530;49.968;19.844;2023-05-19T08:08:54;12.40;99.90
20740;DHT22;10530;49.968;19.844;2023-05-19T08:13:57;12.60;99.90
20740;DHT22;10530;49.968;19.844;2023-05-19T08:19:00;12.70;99.90
20740;DHT22;10530;49.968;19.844;2023-05-19T08:24:06;12.50;99.90
20740;DHT22;10530;49.968;19.844;2023-05-19T08:29:09;12.50;99.90
20740;DHT22;10530;49.968;19.844;2023-05-19T08:34:12;12.50;99.90
20740;DHT22;10530;49.968;19.844;2023-05-19T08:39:15;12.60;99.90
20740;DHT22;10530;49.968;19.844;2023-05-19T08:44:21;12.90;99.90
20740;DHT22;10530;49.968;19.844;2023-05-19T08:49:26;13.10;99.90
20740;DHT22;10530;49.968;19.844;2023-05-19T08:54:40;13.20;99.90
20740;DHT22;10530;49.968;19.844;2023-05-19T08:59:46;13.30;99.90
20740;DHT22;10530;49.968;19.844;2023-05-19T09:04:51;13.50;99.90
20740;DHT22;10530;49.968;19.844;2023-05-19T09:09:54;13.30;99.90
20740;DHT22;10530;49.968;19.844;2023-05-19T09:14:58;13.20;99.90
20740;DHT22;10530;49.968;19.844;2023-05-19T09:20:02;13.30;99.90
20740;DHT22;10530;49.968;19.844;2023-05-19T09:25:17;13.20;99.90
20740;DHT22;10530;49.968;19.844;2023-05-19T09:30:20;13.20;99.90
20740;DHT22;10530;49.968;19.844;2023-05-19T09:35:23;13.20;99.90
20740;DHT22;10530;49.968;19.844;2023-05-19T09:40:31;13.50;99.90
20740;DHT22;10530;49.968;19.844;2023-05-19T09:45:35;14.00;99.90
20740;DHT22;10530;49.968;19.844;2023-05-19T09:50:38;13.60;99.90
20740;DHT22;10530;49.968;19.844;2023-05-19T09:55:41;13.50;99.90
20740;DHT22;10530;49.968;19.844;2023-05-19T10:00:45;13.70;99.90
20740;DHT22;10530;49.968;19.844;2023-05-19T10:05:48;13.70;99.90
20740;DHT22;10530;49.968;19.844;2023-05-19T10:10:52;14.00;99.90
20740;DHT22;10530;49.968;19.844;2023-05-19T10:15:57;14.00;99.90
20740;DHT22;10530;49.968;19.844;2023-05-19T10:21:02;14.00;99.90
20740;DHT22;10530;49.968;19.844;2023-05-19T10:26:05;13.80;99.90
20740;DHT22;10530;49.968;19.844;2023-05-19T10:31:12;13.70;99.90
20740;DHT22;10530;49.968;19.844;2023-05-19T10:47:00;14.00;99.90
20740;DHT22;10530;49.968;19.844;2023-05-19T10:52:18;14.70;99.90
20740;DHT22;10530;49.968;19.844;2023-05-19T10:57:26;14.50;99.90
20740;DHT22;10530;49.968;19.844;2023-05-19T11:02:50;14.30;99.90
20740;DHT22;10530;49.968;19.844;2023-05-19T11:07:59;14.30;99.90
20740;DHT22;10530;49.968;19.844;2023-05-19T11:13:18;14.50;99.90
20740;DHT22;10530;49.968;19.844;2023-05-19T11:18:24;14.30;99.90
20740;DHT22;10530;49.968;19.844;2023-05-19T11:23:32;14.10;99.90
20740;DHT22;10530;49.968;19.844;2023-05-19T11:28:37;13.90;99.90
20740;DHT22;10530;49.968;19.844;2023-05-19T11:33:41;13.90;99.90
20740;DHT22;10530;49.968;19.844;2023-05-19T11:38:44;13.90;99.90
20740;DHT22;10530;49.968;19.844;2023-05-19T11:43:48;14.30;99.90
20740;DHT22;10530;49.968;19.844;2023-05-19T11:48:52;14.60;99.90
20740;DHT22;10530;49.968;19.844;2023-05-19T11:53:55;14.70;99.90
20740;DHT22;10530;49.968;19.844;2023-05-19T11:58:59;14.40;99.90
20740;DHT22;10530;49.968;19.844;2023-05-19T12:04:06;14.40;99.90
20740;DHT22;10530;49.968;19.844;2023-05-19T12:09:09;14.80;99.90
20740;DHT22;10530;49.968;19.844;2023-05-19T12:14:12;14.60;99.90
20740;DHT22;10530;49.968;19.844;2023-05-19T12:19:16;14.80;99.90
20740;DHT22;10530;49.968;19.844;2023-05-19T12:24:19;14.50;99.90
20740;DHT22;10530;49.968;19.844;2023-05-19T12:29:27;14.20;99.90
20740;DHT22;10530;49.968;19.844;2023-05-19T12:34:30;14.20;99.90
20740;DHT22;10530;49.968;19.844;2023-05-19T12:39:33;14.60;99.90
20740;DHT22;10530;49.968;19.844;2023-05-19T12:44:48;14.30;99.90
20740;DHT22;10530;49.968;19.844;2023-05-19T12:55:03;14.00;99.90
20740;DHT22;10530;49.968;19.844;2023-05-19T13:00:17;13.70;99.90
20740;DHT22;10530;49.968;19.844;2023-05-19T13:05:25;13.70;99.90
20740;DHT22;10530;49.968;19.844;2023-05-19T13:10:28;13.70;99.90
20740;DHT22;10530;49.968;19.844;2023-05-19T13:15:35;13.70;99.90
20740;DHT22;10530;49.968;19.844;2023-05-19T13:20:40;13.90;99.90
20740;DHT22;10530;49.968;19.844;2023-05-19T13:25:43;14.20;99.90
20740;DHT22;10530;49.968;19.844;2023-05-19T13:30:47;14.10;99.90
20740;DHT22;10530;49.968;19.844;2023-05-19T13:35:51;14.20;99.90
20740;DHT22;10530;49.968;19.844;2023-05-19T13:40:54;14.20;99.90
20740;DHT22;10530;49.968;19.844;2023-05-19T13:45:56;14.20;99.90
20740;DHT22;10530;49.968;19.844;2023-05-19T13:51:00;14.00;99.90
20740;DHT22;10530;49.968;19.844;2023-05-19T13:56:04;13.70;99.90
20740;DHT22;10530;49.968;19.844;2023-05-19T14:01:07;13.80;99.90
20740;DHT22;10530;49.968;19.844;2023-05-19T14:06:10;14.00;99.90
20740;DHT22;10530;49.968;19.844;2023-05-19T14:11:23;13.60;99.90
20740;DHT22;10530;49.968;19.844;2023-05-19T14:16:26;13.60;99.90
20740;DHT22;10530;49.968;19.844;2023-05-19T14:21:30;13.60;99.90
20740;DHT22;10530;49.968;19.844;2023-05-19T14:26:34;13.60;99.90
20740;DHT22;10530;49.968;19.844;2023-05-19T14:31:37;13.80;99.90
20740;DHT22;10530;49.968;19.844;2023-05-19T14:36:40;13.80;99.90
20740;DHT22;10530;49.968;19.844;2023-05-19T14:41:43;13.90;99.90
20740;DHT22;10530;49.968;19.844;2023-05-19T14:46:46;14.00;99.90
20740;DHT22;10530;49.968;19.844;2023-05-19T14:51:49;13.80;99.90
20740;DHT22;10530;49.968;19.844;2023-05-19T14:56:52;13.70;99.90
20740;DHT22;10530;49.968;19.844;2023-05-19T15:01:55;14.00;99.90
20740;DHT22;10530;49.968;19.844;2023-05-19T15:06:58;14.00;99.90
20740;DHT22;10530;49.968;19.844;2023-05-19T15:12:04;13.60;99.90
20740;DHT22;10530;49.968;19.844;2023-05-19T15:17:07;13.40;99.90
20740;DHT22;10530;49.968;19.844;2023-05-19T15:22:10;13.50;99.90
20740;DHT22;10530;49.968;19.844;2023-05-19T15:27:13;13.30;99.90
20740;DHT22;10530;49.968;19.844;2023-05-19T15:32:16;13.40;99.90
20740;DHT22;10530;49.968;19.844;2023-05-19T15:37:18;13.40;99.90
20740;DHT22;10530;49.968;19.844;2023-05-19T15:42:21;13.30;99.90
20740;DHT22;10530;49.968;19.844;2023-05-19T15:47:25;13.10;99.90
20740;DHT22;10530;49.968;19.844;2023-05-19T15:52:28;13.20;99.90
20740;DHT22;10530;49.968;19.844;2023-05-19T15:57:31;13.30;99.90
20740;DHT22;10530;49.968;19.844;2023-05-19T16:02:34;13.20;99.90
20740;DHT22;10530;49.968;19.844;2023-05-19T16:07:37;13.30;99.90
20740;DHT22;10530;49.968;19.844;2023-05-19T16:12:40;13.20;99.90
20740;DHT22;10530;49.968;19.844;2023-05-19T16:17:43;13.00;99.90
20740;DHT22;10530;49.968;19.844;2023-05-19T16:22:46;12.90;99.90
20740;DHT22;10530;49.968;19.844;2023-05-19T16:27:49;12.90;99.90
20740;DHT22;10530;49.968;19.844;2023-05-19T16:32:52;12.80;99.90
20740;DHT22;10530;49.968;19.844;2023-05-19T16:37:56;12.80;99.90
20740;DHT22;10530;49.968;19.844;2023-05-19T16:43:00;12.80;99.90
20740;DHT22;10530;49.968;19.844;2023-05-19T16:48:04;12.70;99.90
20740;DHT22;10530;49.968;19.844;2023-05-19T16:53:07;12.70;99.90
20740;DHT22;10530;49.968;19.844;2023-05-19T16:58:10;12.70;99.90
20740;DHT22;10530;49.968;19.844;2023-05-19T17:03:13;12.60;99.90
20740;DHT22;10530;49.968;19.844;2023-05-19T17:08:17;12.50;99.90
20740;DHT22;10530;49.968;19.844;2023-05-19T17:13:20;12.40;99.90
20740;DHT22;10530;49.968;19.844;2023-05-19T17:18:23;12.50;99.90
20740;DHT22;10530;49.968;19.844;2023-05-19T17:23:26;12.40;99.90
20740;DHT22;10530;49.968;19.844;2023-05-19T17:28:29;12.60;99.90
20740;DHT22;10530;49.968;19.844;2023-05-19T17:33:32;12.60;99.90
20740;DHT22;10530;49.968;19.844;2023-05-19T17:38:35;12.60;99.90
20740;DHT22;10530;49.968;19.844;2023-05-19T17:43:42;12.50;99.90
20740;DHT22;10530;49.968;19.844;2023-05-19T17:48:45;12.50;99.90
20740;DHT22;10530;49.968;19.844;2023-05-19T17:53:48;12.60;99.90
20740;DHT22;10530;49.968;19.844;2023-05-19T17:58:51;12.50;99.90
20740;DHT22;10530;49.968;19.844;2023-05-19T18:03:54;12.50;99.90
20740;DHT22;10530;49.968;19.844;2023-05-19T18:08:59;12.50;99.90
20740;DHT22;10530;49.968;19.844;2023-05-19T18:14:03;12.40;99.90
20740;DHT22;10530;49.968;19.844;2023-05-19T18:19:05;12.40;99.90
20740;DHT22;10530;49.968;19.844;2023-05-19T18:24:09;12.40;99.90
20740;DHT22;10530;49.968;19.844;2023-05-19T18:29:12;12.40;99.90
20740;DHT22;10530;49.968;19.844;2023-05-19T18:34:16;12.40;99.90
20740;DHT22;10530;49.968;19.844;2023-05-19T18:39:19;12.40;99.90
20740;DHT22;10530;49.968;19.844;2023-05-19T18:44:22;12.40;99.90
20740;DHT22;10530;49.968;19.844;2023-05-19T18:49:24;12.40;99.90
20740;DHT22;10530;49.968;19.844;2023-05-19T18:54:27;12.40;99.90
20740;DHT22;10530;49.968;19.844;2023-05-19T18:59:30;12.40;99.90
20740;DHT22;10530;49.968;19.844;2023-05-19T19:04:33;12.30;99.90
20740;DHT22;10530;49.968;19.844;2023-05-19T19:09:36;12.30;99.90
20740;DHT22;10530;49.968;19.844;2023-05-19T19:14:39;12.40;99.90
20740;DHT22;10530;49.968;19.844;2023-05-19T19:19:42;12.30;99.90
20740;DHT22;10530;49.968;19.844;2023-05-19T19:24:46;12.30;99.90
20740;DHT22;10530;49.968;19.844;2023-05-19T19:29:49;12.30;99.90
20740;DHT22;10530;49.968;19.844;2023-05-19T19:34:52;12.40;99.90
20740;DHT22;10530;49.968;19.844;2023-05-19T19:39:55;12.20;99.90
20740;DHT22;10530;49.968;19.844;2023-05-19T19:44:58;12.30;99.90
20740;DHT22;10530;49.968;19.844;2023-05-19T19:50:01;12.30;99.90
20740;DHT22;10530;49.968;19.844;2023-05-19T19:55:07;12.30;99.90
20740;DHT22;10530;49.968;19.844;2023-05-19T20:00:11;12.30;99.90
20740;DHT22;10530;49.968;19.844;2023-05-19T20:05:14;12.30;99.90
20740;DHT22;10530;49.968;19.844;2023-05-19T20:10:17;12.30;99.90
20740;DHT22;10530;49.968;19.844;2023-05-19T20:15:21;12.20;99.90
20740;DHT22;10530;49.968;19.844;2023-05-19T20:20:24;12.20;99.90
20740;DHT22;10530;49.968;19.844;2023-05-19T20:25:27;12.30;99.90
20740;DHT22;10530;49.968;19.844;2023-05-19T20:30:30;12.20;99.90
20740;DHT22;10530;49.968;19.844;2023-05-19T20:35:33;12.20;99.90
20740;DHT22;10530;49.968;19.844;2023-05-19T20:40:36;12.20;99.90
20740;DHT22;10530;49.968;19.844;2023-05-19T20:45:42;12.20;99.90
20740;DHT22;10530;49.968;19.844;2023-05-19T20:50:45;12.10;99.90
20740;DHT22;10530;49.968;19.844;2023-05-19T20:55:48;12.10;99.90
20740;DHT22;10530;49.968;19.844;2023-05-19T21:00:51;12.10;99.90
20740;DHT22;10530;49.968;19.844;2023-05-19T21:05:59;12.00;99.90
20740;DHT22;10530;49.968;19.844;2023-05-19T21:11:02;12.10;99.90
20740;DHT22;10530;49.968;19.844;2023-05-19T21:16:05;12.00;99.90
20740;DHT22;10530;49.968;19.844;2023-05-19T21:21:08;12.00;99.90
20740;DHT22;10530;49.968;19.844;2023-05-19T21:26:11;11.90;99.90
20740;DHT22;10530;49.968;19.844;2023-05-19T21:31:14;11.90;99.90
20740;DHT22;10530;49.968;19.844;2023-05-19T21:36:17;11.90;99.90
20740;DHT22;10530;49.968;19.844;2023-05-19T21:41:20;11.80;99.90
20740;DHT22;10530;49.968;19.844;2023-05-19T21:46:23;11.80;99.90
20740;DHT22;10530;49.968;19.844;2023-05-19T21:51:27;11.90;99.90
20740;DHT22;10530;49.968;19.844;2023-05-19T21:56:30;11.90;99.90
20740;DHT22;10530;49.968;19.844;2023-05-19T22:01:33;11.90;99.90
20740;DHT22;10530;49.968;19.844;2023-05-19T22:06:36;11.80;99.90
20740;DHT22;10530;49.968;19.844;2023-05-19T22:11:39;11.90;99.90
20740;DHT22;10530;49.968;19.844;2023-05-19T22:16:42;11.90;99.90
20740;DHT22;10530;49.968;19.844;2023-05-19T22:21:45;11.90;99.90
20740;DHT22;10530;49.968;19.844;2023-05-19T22:26:48;11.80;99.90
20740;DHT22;10530;49.968;19.844;2023-05-19T22:31:50;11.80;99.90
20740;DHT22;10530;49.968;19.844;2023-05-19T22:36:53;11.70;99.90
20740;DHT22;10530;49.968;19.844;2023-05-19T22:41:56;11.70;99.90
20740;DHT22;10530;49.968;19.844;2023-05-19T22:46:59;11.70;99.90
20740;DHT22;10530;49.968;19.844;2023-05-19T22:52:02;11.70;99.90
20740;DHT22;10530;49.968;19.844;2023-05-19T22:57:05;11.70;99.90
20740;DHT22;10530;49.968;19.844;2023-05-19T23:02:07;11.60;99.90
20740;DHT22;10530;49.968;19.844;2023-05-19T23:07:10;11.60;99.90
20740;DHT22;10530;49.968;19.844;2023-05-19T23:12:13;11.50;99.90
20740;DHT22;10530;49.968;19.844;2023-05-19T23:17:16;11.40;99.90
20740;DHT22;10530;49.968;19.844;2023-05-19T23:22:19;11.50;99.90
20740;DHT22;10530;49.968;19.844;2023-05-19T23:27:21;11.50;99.90
20740;DHT22;10530;49.968;19.844;2023-05-19T23:32:24;11.50;99.90
20740;DHT22;10530;49.968;19.844;2023-05-19T23:37:27;11.50;99.90
20740;DHT22;10530;49.968;19.844;2023-05-19T23:42:29;11.50;99.90
20740;DHT22;10530;49.968;19.844;2023-05-19T23:47:33;11.50;99.90
20740;DHT22;10530;49.968;19.844;2023-05-19T23:52:35;11.50;99.90
20740;DHT22;10530;49.968;19.844;2023-05-19T23:57:38;11.50;99.90
